Time;durP1;ratioP1;P1;durP2;ratioP2;P2;SDS_P1;SDS_P2;PMS_P1;PMS_P2;Temp;Humidity;BMP_temperature;BMP_pressure;BME280_temperature;BME280_humidity;BME280_pressure;Samples;Min_cycle;Max_cycle;Signal;HPM_P1;HPM_P2
2022/01/04 00:00:10;;;;;;;2.67;1.70;;;9.20;90.90;;;;;;6148849;22;19998;-79
2022/01/04 00:02:36;;;;;;;2.88;1.52;;;9.10;90.90;;;;;;6249166;22;20009;-79
2022/01/04 00:05:04;;;;;;;1.92;1.58;;;9.20;91.00;;;;;;6252602;22;20067;-78
2022/01/04 00:07:31;;;;;;;3.53;1.80;;;9.10;91.00;;;;;;6228288;22;20391;-79
2022/01/04 00:09:57;;;;;;;2.70;1.60;;;9.20;91.00;;;;;;6256876;22;20031;-79
2022/01/04 00:15:07;;;;;;;2.20;1.42;;;9.10;91.00;;;;;;6235649;22;20021;-80
2022/01/04 00:17:33;;;;;;;2.20;1.33;;;9.10;91.00;;;;;;6200895;22;19998;-80
2022/01/04 00:19:59;;;;;;;1.73;1.38;;;9.10;91.00;;;;;;6251460;22;20006;-80
2022/01/04 00:22:25;;;;;;;1.83;1.20;;;9.20;91.10;;;;;;6148631;22;20029;-79
2022/01/04 00:24:51;;;;;;;2.45;1.65;;;9.20;91.10;;;;;;6200592;23;20002;-79
2022/01/04 00:27:16;;;;;;;2.88;1.77;;;9.10;91.10;;;;;;6251999;22;20009;-80
2022/01/04 00:29:42;;;;;;;2.60;1.48;;;9.10;91.10;;;;;;6148324;22;20429;-79
2022/01/04 00:32:08;;;;;;;3.03;1.40;;;9.00;91.10;;;;;;6148765;22;20029;-79
2022/01/04 00:34:34;;;;;;;2.65;1.30;;;9.10;91.10;;;;;;6148357;23;20376;-79
2022/01/04 00:36:59;;;;;;;1.90;1.48;;;9.00;91.10;;;;;;6148338;22;20001;-79
2022/01/04 00:39:25;;;;;;;1.92;1.50;;;9.10;91.10;;;;;;6225744;22;20002;-79
2022/01/04 00:41:51;;;;;;;2.92;1.52;;;9.10;91.10;;;;;;6147657;22;20032;-79
2022/01/04 00:44:17;;;;;;;2.50;1.30;;;9.10;91.10;;;;;;6147668;22;20803;-79
2022/01/04 00:46:43;;;;;;;2.50;1.63;;;9.10;91.10;;;;;;6258992;22;19999;-79
2022/01/04 00:49:09;;;;;;;3.85;1.90;;;9.10;91.10;;;;;;6237217;22;20310;-79
2022/01/04 00:51:39;;;;;;;2.92;2.00;;;9.20;91.10;;;;;;6252660;22;20010;-78
2022/01/04 00:54:05;;;;;;;3.08;1.75;;;9.10;91.00;;;;;;6147583;22;20001;-78
2022/01/04 00:56:31;;;;;;;3.03;1.90;;;9.10;91.10;;;;;;6257559;22;20003;-79
2022/01/04 00:58:57;;;;;;;2.92;1.70;;;9.10;91.10;;;;;;6148053;22;20009;-80
2022/01/04 01:01:23;;;;;;;2.55;1.67;;;9.10;91.10;;;;;;6263801;22;20071;-80
2022/01/04 01:03:49;;;;;;;3.72;1.60;;;9.10;91.10;;;;;;6255185;22;20074;-79
2022/01/04 01:06:15;;;;;;;2.28;1.60;;;9.10;91.10;;;;;;6251073;22;20002;-79
2022/01/04 01:08:42;;;;;;;3.38;2.03;;;9.10;91.10;;;;;;6148363;23;20314;-79
2022/01/04 01:11:08;;;;;;;2.72;1.55;;;9.10;91.10;;;;;;6148327;23;20376;-80
2022/01/04 01:13:35;;;;;;;2.83;1.52;;;9.10;91.40;;;;;;6226139;22;20114;-79
2022/01/04 01:16:01;;;;;;;3.90;1.23;;;9.10;91.10;;;;;;6225302;22;20024;-79
2022/01/04 01:18:27;;;;;;;2.90;1.75;;;9.10;91.10;;;;;;6147706;23;20029;-79
2022/01/04 01:20:53;;;;;;;2.65;1.40;;;9.10;91.10;;;;;;6147922;22;20143;-79
2022/01/04 01:23:20;;;;;;;3.28;1.80;;;9.10;91.10;;;;;;6226689;22;20445;-79
2022/01/04 01:25:47;;;;;;;2.67;1.48;;;9.10;91.10;;;;;;6252292;22;20333;-79
2022/01/04 01:28:14;;;;;;;1.98;1.38;;;9.10;91.10;;;;;;6251387;22;20084;-79
2022/01/04 01:30:41;;;;;;;2.03;1.25;;;9.20;91.20;;;;;;6202071;22;20009;-79
2022/01/04 01:33:08;;;;;;;2.45;1.50;;;9.10;91.10;;;;;;6229920;22;20006;-79
2022/01/04 01:35:35;;;;;;;3.08;1.60;;;9.20;91.20;;;;;;6258395;22;20388;-79
2022/01/04 01:38:02;;;;;;;3.35;1.70;;;9.10;91.10;;;;;;6252218;22;20037;-79
2022/01/04 01:40:28;;;;;;;2.13;1.50;;;9.10;91.10;;;;;;6232767;22;20324;-79
2022/01/04 01:42:54;;;;;;;2.30;1.30;;;9.10;91.10;;;;;;6149016;22;19998;-79
2022/01/04 01:45:22;;;;;;;2.92;1.58;;;9.20;91.20;;;;;;6149590;22;20006;-79
2022/01/04 01:47:47;;;;;;;3.22;1.60;;;9.10;91.10;;;;;;6149797;22;20448;-79
2022/01/04 01:50:14;;;;;;;2.38;1.60;;;9.20;91.40;;;;;;6252248;22;20009;-79
2022/01/04 01:52:41;;;;;;;3.03;1.77;;;9.10;91.10;;;;;;6204021;22;20101;-80
2022/01/04 01:55:08;;;;;;;3.33;1.90;;;9.10;91.10;;;;;;6251978;22;20033;-79
2022/01/04 01:57:34;;;;;;;3.47;1.75;;;9.10;91.10;;;;;;6259857;22;20007;-80
2022/01/04 02:00:00;;;;;;;3.42;1.90;;;9.10;91.20;;;;;;6149104;22;20037;-79
2022/01/04 02:02:26;;;;;;;3.25;2.10;;;9.10;91.10;;;;;;6226446;22;20455;-80
2022/01/04 02:04:52;;;;;;;4.45;2.15;;;9.10;91.20;;;;;;6149161;22;20006;-79
2022/01/04 02:07:20;;;;;;;3.17;2.08;;;9.10;91.20;;;;;;6149003;22;20017;-80
2022/01/04 02:09:55;;;;;;;3.50;1.80;;;9.10;91.20;;;;;;6226752;22;20057;-79
2022/01/04 02:12:22;;;;;;;2.53;1.65;;;9.10;91.20;;;;;;6244200;22;20371;-80
2022/01/04 02:14:49;;;;;;;4.43;1.95;;;9.10;91.20;;;;;;6251895;22;20021;-80
2022/01/04 02:17:16;;;;;;;3.78;2.10;;;9.10;91.20;;;;;;6149374;23;20001;-80
2022/01/04 02:19:41;;;;;;;2.97;1.80;;;9.10;91.20;;;;;;6205013;22;20006;-79
2022/01/04 02:22:07;;;;;;;3.08;1.95;;;9.10;91.20;;;;;;6149189;22;20009;-79
2022/01/04 02:24:33;;;;;;;2.33;1.70;;;9.10;91.20;;;;;;6148858;22;20084;-79
2022/01/04 02:26:59;;;;;;;3.80;1.73;;;9.00;91.20;;;;;;6252021;22;20429;-79
2022/01/04 02:29:26;;;;;;;2.08;1.55;;;9.00;91.20;;;;;;6226560;23;19998;-79
2022/01/04 02:31:52;;;;;;;2.90;1.90;;;9.00;91.20;;;;;;6148627;23;20005;-79
2022/01/04 02:34:18;;;;;;;2.53;1.50;;;9.00;91.30;;;;;;6226131;22;20058;-79
2022/01/04 02:36:44;;;;;;;2.90;1.70;;;8.90;91.30;;;;;;6226459;22;20060;-79
2022/01/04 02:39:10;;;;;;;2.88;1.75;;;9.00;91.30;;;;;;6252808;22;20429;-78
2022/01/04 02:41:36;;;;;;;2.28;1.60;;;9.00;91.30;;;;;;6148800;22;20002;-79
2022/01/04 02:44:02;;;;;;;2.17;1.60;;;8.90;91.30;;;;;;6226410;22;20051;-79
2022/01/04 02:46:28;;;;;;;2.15;1.42;;;8.90;91.40;;;;;;6252014;22;20421;-79
2022/01/04 02:48:54;;;;;;;2.45;1.58;;;8.90;91.40;;;;;;6161650;22;20005;-79
2022/01/04 02:51:19;;;;;;;2.35;1.67;;;8.80;91.30;;;;;;6251756;22;20002;-79
2022/01/04 02:53:45;;;;;;;4.30;1.60;;;8.90;91.40;;;;;;6226286;23;20410;-79
2022/01/04 02:56:11;;;;;;;2.10;1.40;;;8.90;91.40;;;;;;6251620;22;20018;-80
2022/01/04 02:58:37;;;;;;;2.15;1.38;;;8.90;91.40;;;;;;6256057;22;20301;-79
2022/01/04 03:01:04;;;;;;;3.97;1.70;;;8.90;91.40;;;;;;6148657;22;20062;-79
2022/01/04 03:03:30;;;;;;;3.10;1.70;;;8.80;91.40;;;;;;6226993;22;20006;-80
2022/01/04 03:05:56;;;;;;;2.13;1.20;;;8.80;91.40;;;;;;6234504;22;20000;-78
2022/01/04 03:08:23;;;;;;;3.08;1.67;;;8.80;91.40;;;;;;6148608;22;20006;-79
2022/01/04 03:10:50;;;;;;;2.13;1.48;;;8.90;91.40;;;;;;6251967;22;20082;-79
2022/01/04 03:13:16;;;;;;;4.18;1.80;;;8.80;91.40;;;;;;6148848;22;20061;-79
2022/01/04 03:15:44;;;;;;;2.30;1.60;;;8.80;91.40;;;;;;6148629;22;20088;-79
2022/01/04 03:18:10;;;;;;;3.45;1.80;;;8.80;91.40;;;;;;6148991;22;20329;-80
2022/01/04 03:20:36;;;;;;;3.40;1.98;;;8.80;91.30;;;;;;6259689;22;19992;-79
2022/01/04 03:23:02;;;;;;;3.63;1.95;;;8.80;91.30;;;;;;6148332;22;20002;-79
2022/01/04 03:25:28;;;;;;;2.30;1.60;;;8.80;91.40;;;;;;6253241;22;20414;-79
2022/01/04 03:27:54;;;;;;;3.13;1.70;;;8.80;91.30;;;;;;6148318;22;20058;-80
2022/01/04 03:30:20;;;;;;;3.80;1.95;;;8.80;91.30;;;;;;6251540;22;20437;-80
2022/01/04 03:32:45;;;;;;;3.53;2.00;;;8.80;91.30;;;;;;6148463;22;20395;-79
2022/01/04 03:35:11;;;;;;;3.15;1.75;;;8.80;91.30;;;;;;6148296;22;20024;-79
2022/01/04 03:37:38;;;;;;;2.67;1.75;;;8.80;91.30;;;;;;6226897;22;19994;-79
2022/01/04 03:40:05;;;;;;;3.47;1.58;;;8.80;91.60;;;;;;6226705;22;20005;-79
2022/01/04 03:42:31;;;;;;;2.92;1.85;;;8.80;91.30;;;;;;6226606;22;20417;-79
2022/01/04 03:44:57;;;;;;;3.22;1.77;;;8.80;91.40;;;;;;6251142;22;20006;-79
2022/01/04 03:47:23;;;;;;;2.47;1.45;;;8.80;91.40;;;;;;6252232;22;20432;-79
2022/01/04 03:49:49;;;;;;;2.20;1.65;;;8.70;91.40;;;;;;6148090;22;20006;-79
2022/01/04 03:52:15;;;;;;;3.22;1.77;;;8.80;91.40;;;;;;6226590;22;20024;-79
2022/01/04 03:54:41;;;;;;;3.13;1.58;;;8.70;91.40;;;;;;6142339;22;20055;-79
2022/01/04 03:57:07;;;;;;;2.10;1.40;;;8.70;91.40;;;;;;6148813;22;20005;-79
2022/01/04 03:59:33;;;;;;;2.38;1.63;;;8.70;91.40;;;;;;6233395;22;19999;-79
2022/01/04 04:01:58;;;;;;;3.15;1.92;;;8.70;91.40;;;;;;6251805;22;20005;-79
2022/01/04 04:04:25;;;;;;;3.08;1.80;;;8.70;91.40;;;;;;6226005;22;20016;-79
2022/01/04 04:06:51;;;;;;;3.05;1.90;;;8.70;91.50;;;;;;6226407;22;20006;-79
2022/01/04 04:09:16;;;;;;;3.20;1.80;;;8.70;91.40;;;;;;6252162;22;20043;-79
2022/01/04 04:11:42;;;;;;;2.45;1.40;;;8.60;91.40;;;;;;6148212;23;20006;-79
2022/01/04 04:14:08;;;;;;;3.08;1.80;;;8.60;91.40;;;;;;6226073;22;20467;-79
2022/01/04 04:16:34;;;;;;;4.00;1.77;;;8.60;91.40;;;;;;6251296;22;20009;-79
2022/01/04 04:19:00;;;;;;;3.67;2.10;;;8.60;91.50;;;;;;6148532;22;20414;-79
2022/01/04 04:21:25;;;;;;;3.15;1.80;;;8.60;91.50;;;;;;6259468;22;19995;-80
2022/01/04 04:23:51;;;;;;;2.15;1.50;;;8.60;91.50;;;;;;6251746;22;20414;-79
2022/01/04 04:26:17;;;;;;;3.72;2.17;;;8.50;91.50;;;;;;6225449;22;20333;-79
2022/01/04 04:28:42;;;;;;;3.95;2.20;;;8.60;91.50;;;;;;6226144;22;20425;-79
2022/01/04 04:31:08;;;;;;;2.03;1.48;;;8.60;91.50;;;;;;6230376;22;19996;-79
2022/01/04 04:33:34;;;;;;;4.38;2.08;;;8.60;91.50;;;;;;6251690;22;20005;-79
2022/01/04 04:36:00;;;;;;;3.40;1.90;;;8.50;91.50;;;;;;6147915;22;20014;-79
2022/01/04 04:38:26;;;;;;;4.63;2.35;;;8.50;91.50;;;;;;6225653;22;20060;-79
2022/01/04 04:40:52;;;;;;;3.22;1.90;;;8.50;91.50;;;;;;6251360;22;20002;-79
2022/01/04 04:43:18;;;;;;;2.88;1.83;;;8.50;91.50;;;;;;6225467;23;20051;-79
2022/01/04 04:45:43;;;;;;;4.25;2.08;;;8.50;91.50;;;;;;6148230;23;20005;-79
2022/01/04 04:48:09;;;;;;;3.33;1.88;;;8.50;91.50;;;;;;6225547;23;20001;-79
2022/01/04 04:50:35;;;;;;;2.88;1.67;;;8.50;91.50;;;;;;6251460;22;20005;-79
2022/01/04 04:53:01;;;;;;;3.35;2.05;;;8.50;91.60;;;;;;6231581;22;20011;-79
2022/01/04 04:55:27;;;;;;;4.03;2.30;;;8.50;91.50;;;;;;6251183;22;20348;-79
2022/01/04 04:57:53;;;;;;;4.35;2.17;;;8.50;91.60;;;;;;6226850;23;20029;-79
2022/01/04 05:00:19;;;;;;;3.70;2.10;;;8.40;91.80;;;;;;6252674;22;20006;-79
2022/01/04 05:02:44;;;;;;;4.13;2.08;;;8.50;91.60;;;;;;6201951;23;20005;-79
2022/01/04 05:05:11;;;;;;;4.50;2.28;;;8.40;91.60;;;;;;6150185;22;20006;-79
2022/01/04 05:07:36;;;;;;;3.22;2.00;;;8.40;91.60;;;;;;6227127;22;20005;-79
2022/01/04 05:10:04;;;;;;;3.65;2.00;;;8.40;91.60;;;;;;6201957;22;20006;-79
2022/01/04 05:12:30;;;;;;;4.32;1.90;;;8.50;91.60;;;;;;6227513;22;20044;-80
2022/01/04 05:14:56;;;;;;;3.15;1.92;;;8.40;91.60;;;;;;6252806;22;20018;-79
2022/01/04 05:17:22;;;;;;;3.13;1.90;;;8.40;91.60;;;;;;6202029;23;20020;-79
2022/01/04 05:19:47;;;;;;;4.10;2.25;;;8.40;91.60;;;;;;6227503;22;20055;-79
2022/01/04 05:22:13;;;;;;;4.82;2.40;;;8.50;91.60;;;;;;6252619;22;20429;-79
2022/01/04 05:24:39;;;;;;;3.03;1.92;;;8.40;91.60;;;;;;6227735;22;20055;-79
2022/01/04 05:27:05;;;;;;;6.63;2.33;;;8.40;91.60;;;;;;6239721;22;20000;-78
2022/01/04 05:29:31;;;;;;;3.67;2.17;;;8.50;91.60;;;;;;6256339;22;20096;-79
2022/01/04 05:31:57;;;;;;;3.67;2.17;;;8.40;91.60;;;;;;6258820;22;20004;-78
2022/01/04 05:34:23;;;;;;;4.22;2.35;;;8.50;91.60;;;;;;6263225;22;20016;-79
2022/01/04 05:36:49;;;;;;;3.13;1.92;;;8.50;91.60;;;;;;6226329;22;20004;-79
2022/01/04 05:39:15;;;;;;;4.00;2.47;;;8.50;91.60;;;;;;6226867;22;20001;-79
2022/01/04 05:41:41;;;;;;;4.70;2.25;;;8.40;91.50;;;;;;6149367;22;20048;-79
2022/01/04 05:44:06;;;;;;;3.97;2.40;;;8.50;91.60;;;;;;6252181;22;19998;-79
2022/01/04 05:46:32;;;;;;;4.40;2.30;;;8.50;91.60;;;;;;6252295;22;20029;-79
2022/01/04 05:48:58;;;;;;;4.13;2.40;;;8.50;91.60;;;;;;6207725;22;20007;-79
2022/01/04 05:51:24;;;;;;;5.20;2.22;;;8.40;91.50;;;;;;6252054;22;20394;-79
2022/01/04 05:53:50;;;;;;;4.00;2.40;;;8.50;91.60;;;;;;6226876;22;20041;-79
2022/01/04 05:56:15;;;;;;;4.15;2.50;;;8.40;91.60;;;;;;6226552;23;20009;-79
2022/01/04 05:58:41;;;;;;;4.35;2.22;;;8.50;91.60;;;;;;6201536;23;20443;-79
2022/01/04 06:01:07;;;;;;;4.55;2.30;;;8.50;91.60;;;;;;6201836;23;20377;-79
2022/01/04 06:03:33;;;;;;;3.78;2.30;;;8.40;91.50;;;;;;6226937;22;19998;-79
2022/01/04 06:05:59;;;;;;;4.63;2.30;;;8.40;91.80;;;;;;6235565;22;20065;-79
2022/01/04 06:08:31;;;;;;;3.45;2.05;;;8.40;91.60;;;;;;6245774;22;20007;-79
2022/01/04 06:10:57;;;;;;;4.30;2.00;;;8.40;91.60;;;;;;6246827;22;20013;-79
2022/01/04 06:16:08;;;;;;;4.70;2.40;;;8.40;91.60;;;;;;6218334;22;20106;-79
2022/01/04 06:18:34;;;;;;;4.03;2.20;;;8.40;91.60;;;;;;6149749;22;19998;-77
2022/01/04 06:21:00;;;;;;;4.57;2.50;;;8.40;91.60;;;;;;6201705;23;20004;-79
2022/01/04 06:23:25;;;;;;;4.50;2.35;;;8.40;91.60;;;;;;6149004;22;20002;-78
2022/01/04 06:25:53;;;;;;;4.63;2.63;;;8.30;91.60;;;;;;6230280;22;20016;-78
2022/01/04 06:28:19;;;;;;;3.70;2.42;;;8.40;91.60;;;;;;6226663;22;20017;-79
2022/01/04 06:30:45;;;;;;;3.97;2.17;;;8.30;91.60;;;;;;6251241;22;20025;-79
2022/01/04 06:33:13;;;;;;;4.03;1.95;;;8.30;91.60;;;;;;6251889;22;20014;-79
2022/01/04 06:35:39;;;;;;;5.53;2.45;;;8.30;91.60;;;;;;6210778;23;20025;-78
2022/01/04 06:38:05;;;;;;;3.50;2.03;;;8.30;91.60;;;;;;6161090;23;20463;-78
2022/01/04 06:40:31;;;;;;;3.60;1.70;;;8.30;91.70;;;;;;6186114;23;20332;-78
2022/01/04 06:42:57;;;;;;;4.03;1.95;;;8.30;91.70;;;;;;6185980;23;20016;-79
2022/01/04 06:45:23;;;;;;;4.45;2.17;;;8.30;91.60;;;;;;6211603;23;20453;-79
2022/01/04 06:47:49;;;;;;;3.53;1.90;;;8.30;91.70;;;;;;6185746;23;20012;-79
2022/01/04 06:50:15;;;;;;;3.53;2.10;;;8.30;91.60;;;;;;6185914;23;20013;-78
2022/01/04 06:52:42;;;;;;;4.13;2.17;;;8.30;91.60;;;;;;6186030;23;20043;-79
2022/01/04 06:55:09;;;;;;;3.40;2.00;;;8.30;91.60;;;;;;6211002;23;20021;-79
2022/01/04 06:57:34;;;;;;;4.03;1.95;;;8.30;91.60;;;;;;6161065;23;20155;-79
2022/01/04 07:00:00;;;;;;;3.38;1.98;;;8.30;91.60;;;;;;6186278;23;20456;-79
2022/01/04 07:02:26;;;;;;;4.40;2.25;;;8.40;91.60;;;;;;6185896;23;20000;-79
2022/01/04 07:04:51;;;;;;;4.15;2.20;;;8.30;91.60;;;;;;6185753;23;20005;-78
2022/01/04 07:07:17;;;;;;;4.18;2.20;;;8.40;91.70;;;;;;6243992;22;20072;-79
2022/01/04 07:09:43;;;;;;;4.07;2.30;;;8.40;91.60;;;;;;6226202;22;20002;-79
2022/01/04 07:12:09;;;;;;;4.40;2.35;;;8.30;91.60;;;;;;6149483;23;20385;-78
2022/01/04 07:14:35;;;;;;;4.57;2.33;;;8.30;91.70;;;;;;6226595;22;20392;-78
2022/01/04 07:17:01;;;;;;;4.57;2.45;;;8.40;91.70;;;;;;6257874;22;19996;-78
2022/01/04 07:19:26;;;;;;;4.45;2.20;;;8.40;91.70;;;;;;6147848;22;20428;-78
2022/01/04 07:21:52;;;;;;;4.47;2.45;;;8.30;91.70;;;;;;6148402;22;20085;-78
2022/01/04 07:24:18;;;;;;;4.05;2.22;;;8.40;91.70;;;;;;6251615;22;20012;-78
2022/01/04 07:26:43;;;;;;;5.05;2.83;;;8.30;91.60;;;;;;6251487;22;20380;-80
2022/01/04 07:29:09;;;;;;;5.32;3.10;;;8.30;91.60;;;;;;6226271;23;20006;-82
2022/01/04 07:31:35;;;;;;;6.50;2.63;;;8.30;91.60;;;;;;6252088;22;20004;-79
2022/01/04 07:34:01;;;;;;;5.97;3.10;;;8.20;91.60;;;;;;6258423;22;20000;-78
2022/01/04 07:36:29;;;;;;;5.82;2.92;;;8.20;91.60;;;;;;6261897;22;20011;-77
2022/01/04 07:38:55;;;;;;;6.25;3.47;;;8.30;91.70;;;;;;6251685;22;20002;-77
2022/01/04 07:41:21;;;;;;;5.10;2.83;;;8.20;91.70;;;;;;6235726;22;19999;-79
2022/01/04 07:43:47;;;;;;;6.13;3.13;;;8.20;91.70;;;;;;6251526;22;20074;-78
2022/01/04 07:46:13;;;;;;;6.13;3.45;;;8.10;91.70;;;;;;6201261;22;20009;-79
2022/01/04 07:48:39;;;;;;;5.35;3.00;;;8.20;91.80;;;;;;6201087;23;20452;-77
2022/01/04 07:51:05;;;;;;;5.22;3.00;;;8.20;91.80;;;;;;6256714;22;20057;-76
2022/01/04 07:53:30;;;;;;;4.63;2.42;;;8.10;91.80;;;;;;6251534;22;20017;-77
2022/01/04 07:55:57;;;;;;;4.30;2.40;;;8.10;91.90;;;;;;6201137;23;20017;-75
2022/01/04 07:58:23;;;;;;;4.55;2.47;;;8.10;91.90;;;;;;6251326;22;20017;-77
2022/01/04 08:00:49;;;;;;;4.70;2.40;;;8.10;92.00;;;;;;6147865;22;20002;-78
2022/01/04 08:03:15;;;;;;;4.85;2.10;;;8.10;92.30;;;;;;6148108;22;20090;-76
2022/01/04 08:05:41;;;;;;;5.00;2.40;;;8.10;92.00;;;;;;6148747;22;20294;-76
2022/01/04 08:08:08;;;;;;;4.50;2.00;;;8.10;92.00;;;;;;6148497;22;20002;-79
2022/01/04 08:10:34;;;;;;;4.40;2.40;;;8.20;92.00;;;;;;6226232;22;20063;-80
2022/01/04 08:13:00;;;;;;;5.70;2.90;;;8.10;91.90;;;;;;6251168;22;20422;-82
2022/01/04 08:15:27;;;;;;;5.38;2.80;;;8.20;92.00;;;;;;6225841;22;20014;-82
2022/01/04 08:17:53;;;;;;;5.20;2.67;;;8.10;91.90;;;;;;6255770;22;19992;-83
2022/01/04 08:20:19;;;;;;;5.93;3.05;;;8.20;92.00;;;;;;6250941;22;20513;-81
2022/01/04 08:22:45;;;;;;;5.75;3.00;;;8.20;91.90;;;;;;6226251;22;20038;-82
2022/01/04 08:25:11;;;;;;;5.90;2.83;;;8.20;91.90;;;;;;6262019;22;20004;-81
2022/01/04 08:27:38;;;;;;;6.03;2.78;;;8.20;91.90;;;;;;6251585;22;20425;-83
2022/01/04 08:30:09;;;;;;;5.35;3.00;;;8.20;91.90;;;;;;6227396;22;20021;-83
2022/01/04 08:32:35;;;;;;;5.32;2.85;;;8.20;91.90;;;;;;6253695;22;20010;-83
2022/01/04 08:35:02;;;;;;;6.00;3.20;;;8.20;91.90;;;;;;6203151;22;20441;-83
2022/01/04 08:37:29;;;;;;;5.65;3.08;;;8.30;91.90;;;;;;6254635;22;20048;-83
2022/01/04 08:39:56;;;;;;;7.05;3.10;;;8.20;91.90;;;;;;6150822;22;20004;-82
2022/01/04 08:42:22;;;;;;;6.72;3.08;;;8.20;91.90;;;;;;6253261;22;20002;-81
2022/01/04 08:44:49;;;;;;;7.07;3.53;;;8.20;91.90;;;;;;6252473;22;20006;-82
2022/01/04 08:47:15;;;;;;;6.97;3.30;;;8.30;91.90;;;;;;6235062;22;20008;-83
2022/01/04 08:49:41;;;;;;;6.97;3.28;;;8.30;91.90;;;;;;6252969;22;20013;-83
2022/01/04 08:52:08;;;;;;;6.70;3.38;;;8.20;91.90;;;;;;6252752;22;20033;-83
2022/01/04 08:54:35;;;;;;;6.47;3.17;;;8.30;91.90;;;;;;6202482;23;20025;-83
2022/01/04 08:57:01;;;;;;;5.95;3.05;;;8.20;91.90;;;;;;6150271;22;20033;-82
2022/01/04 08:59:27;;;;;;;6.40;3.50;;;8.30;91.90;;;;;;6150285;23;20002;-82
2022/01/04 09:01:54;;;;;;;6.30;3.13;;;8.30;91.90;;;;;;6253386;22;20010;-84
2022/01/04 09:04:50;;;;;;;6.22;3.00;;;8.40;91.90;;;;;;6234759;22;19996;-85
2022/01/04 09:07:17;;;;;;;7.10;3.50;;;8.30;91.90;;;;;;6253428;22;20066;-83
2022/01/04 09:09:43;;;;;;;5.72;3.15;;;8.40;91.90;;;;;;6252853;22;20002;-79
2022/01/04 09:12:08;;;;;;;6.78;3.20;;;8.40;91.90;;;;;;6227263;23;20002;-83
2022/01/04 09:14:54;;;;;;;5.50;2.97;;;8.40;91.90;;;;;;6149872;22;20330;-80
2022/01/04 09:20:05;;;;;;;6.05;3.13;;;8.40;91.80;;;;;;6218014;22;20014;-79
2022/01/04 09:22:31;;;;;;;5.63;2.88;;;8.50;91.90;;;;;;6151096;22;20002;-82
2022/01/04 09:24:57;;;;;;;6.03;2.75;;;8.50;91.90;;;;;;6228488;22;20012;-80
2022/01/04 09:27:22;;;;;;;4.70;2.55;;;8.40;91.90;;;;;;6255659;22;20012;-81
2022/01/04 09:29:49;;;;;;;5.85;2.70;;;8.40;91.90;;;;;;6264012;22;20007;-78
2022/01/04 09:32:17;;;;;;;5.50;3.05;;;8.40;91.90;;;;;;6255523;22;20008;-84
2022/01/04 09:35:15;;;;;;;4.88;2.67;;;8.40;91.90;;;;;;6206074;22;20067;-85
2022/01/04 09:37:41;;;;;;;5.55;2.58;;;8.40;92.00;;;;;;6199868;23;20063;-84
2022/01/04 09:40:08;;;;;;;5.70;2.78;;;8.40;92.00;;;;;;6189667;23;20031;-84
2022/01/04 09:42:40;;;;;;;6.53;2.88;;;8.30;92.00;;;;;;6189872;23;20009;-85
2022/01/04 09:48:13;;;;;;;5.85;2.90;;;8.30;92.00;;;;;;6193960;23;20016;-85
2022/01/04 09:50:42;;;;;;;6.13;3.10;;;8.30;92.10;;;;;;6216309;23;20023;-76
2022/01/04 09:53:49;;;;;;;5.50;2.95;;;8.20;92.00;;;;;;6241443;23;20095;-85
2022/01/04 09:56:17;;;;;;;4.68;2.20;;;8.10;92.10;;;;;;6121838;23;20018;-84
2022/01/04 09:58:48;;;;;;;3.67;1.88;;;8.10;92.10;;;;;;6134144;23;20046;-85
2022/01/04 10:01:20;;;;;;;;;;;8.10;92.20;;;;;;6128522;23;20013;-83
2022/01/04 10:06:39;;;;;;;2.70;1.40;;;7.90;92.20;;;;;;6108750;23;20477;-84
2022/01/04 10:09:11;;;;;;;2.13;1.10;;;7.90;92.20;;;;;;6063950;23;20023;-84
2022/01/04 10:11:52;;;;;;;1.77;1.08;;;7.80;92.20;;;;;;6116236;23;20010;-84
2022/01/04 10:21:14;;;;;;;1.05;0.77;;;7.80;92.30;;;;;;5980893;23;20070;-83
2022/01/04 10:23:50;;;;;;;1.25;0.70;;;7.80;92.30;;;;;;5978799;24;20032;-83
2022/01/04 10:26:17;;;;;;;0.57;0.50;;;7.80;92.30;;;;;;5952530;24;20521;-82
2022/01/04 10:29:23;;;;;;;1.40;0.65;;;7.80;92.30;;;;;;5947459;24;20029;-82
2022/01/04 10:32:19;;;;;;;1.40;0.70;;;7.70;92.30;;;;;;5929307;24;20041;-82
2022/01/04 10:34:49;;;;;;;1.58;1.00;;;7.90;92.30;;;;;;5895805;24;20063;-82
2022/01/04 10:38:05;;;;;;;1.48;0.77;;;7.90;92.30;;;;;;5896634;24;20025;-86
2022/01/04 10:40:41;;;;;;;2.60;1.10;;;8.00;92.30;;;;;;5941527;24;20088;-82
2022/01/04 10:43:10;;;;;;;2.38;1.10;;;8.00;92.20;;;;;;5973085;24;20568;-81
2022/01/04 10:46:18;;;;;;;2.75;1.33;;;8.00;92.20;;;;;;6004277;23;20023;-87
2022/01/04 10:56:31;;;;;;;2.47;1.40;;;8.20;92.00;;;;;;5926141;24;20032;-84
2022/01/04 10:58:58;;;;;;;;;;;8.30;92.00;;;;;;5940216;24;20552;-81
2022/01/04 11:01:28;;;;;;;3.00;1.70;;;8.40;91.90;;;;;;5958712;24;20336;-81
2022/01/04 11:04:30;;;;;;;3.35;1.80;;;8.40;91.90;;;;;;6058897;23;20586;-85
2022/01/04 11:07:00;;;;;;;3.85;1.92;;;8.50;91.90;;;;;;6031985;23;20452;-81
2022/01/04 11:09:26;;;;;;;4.70;2.05;;;8.50;91.90;;;;;;6035521;23;20020;-81
2022/01/04 11:11:53;;;;;;;4.78;2.70;;;8.50;91.90;;;;;;6047664;23;20027;-82
2022/01/04 11:14:19;;;;;;;5.47;2.70;;;8.50;91.90;;;;;;6064067;23;20316;-81
2022/01/04 11:16:54;;;;;;;4.78;2.63;;;8.50;91.90;;;;;;6016274;23;20022;-85
2022/01/04 11:20:28;;;;;;;4.53;2.80;;;8.50;91.90;;;;;;6017187;23;20019;-84
2022/01/04 11:27:23;;;;;;;6.15;3.00;;;8.60;91.90;;;;;;5928300;24;20025;-85
2022/01/04 11:30:13;;;;;;;5.57;2.90;;;8.70;91.80;;;;;;5874115;24;20473;-85
2022/01/04 11:33:06;;;;;;;5.30;2.83;;;8.70;91.80;;;;;;5898322;24;20029;-86
2022/01/04 11:35:32;;;;;;;6.47;3.10;;;8.70;91.80;;;;;;5923328;24;20045;-80
2022/01/04 11:38:00;;;;;;;5.30;2.67;;;8.70;91.80;;;;;;5940633;24;20017;-78
2022/01/04 11:40:39;;;;;;;5.22;2.70;;;8.60;91.80;;;;;;5950839;24;20091;-78
2022/01/04 11:43:38;;;;;;;4.97;2.53;;;8.60;91.90;;;;;;5951034;24;20035;-78
2022/01/04 11:46:05;;;;;;;4.57;2.40;;;8.60;92.00;;;;;;5950732;24;20013;-78
2022/01/04 11:48:39;;;;;;;5.15;2.97;;;8.60;91.90;;;;;;5907465;24;20013;-78
2022/01/04 11:51:08;;;;;;;5.20;2.47;;;8.60;92.00;;;;;;6017261;23;20033;-79
2022/01/04 11:53:36;;;;;;;4.75;2.33;;;8.60;92.00;;;;;;6011181;23;20102;-79
2022/01/04 11:56:06;;;;;;;4.78;2.38;;;8.60;92.10;;;;;;5987987;23;20400;-78
2022/01/04 11:58:50;;;;;;;4.65;2.50;;;8.60;92.10;;;;;;6081362;22;20057;-80
2022/01/04 12:01:33;;;;;;;5.07;2.83;;;8.60;92.10;;;;;;6220361;22;20012;-82
2022/01/04 12:04:04;;;;;;;4.07;2.08;;;8.60;92.10;;;;;;6238230;22;20031;-83
2022/01/04 12:06:42;;;;;;;5.55;2.38;;;8.50;92.20;;;;;;6199167;23;20040;-82
2022/01/04 12:09:26;;;;;;;4.85;2.55;;;8.50;92.20;;;;;;6146033;23;21344;-81
2022/01/04 12:11:52;;;;;;;4.32;1.95;;;8.40;92.20;;;;;;6146253;23;20368;-80
2022/01/04 12:14:27;;;;;;;4.40;2.22;;;8.40;92.20;;;;;;6192874;23;20005;-82
2022/01/04 12:17:04;;;;;;;5.45;2.53;;;8.40;92.20;;;;;;6070183;23;20015;-82
2022/01/04 12:20:02;;;;;;;4.75;2.50;;;8.40;92.30;;;;;;6071914;23;20003;-82
2022/01/04 12:26:34;;;;;;;4.18;2.20;;;8.30;92.30;;;;;;5947108;24;20207;-87
2022/01/04 12:29:24;;;;;;;3.00;1.67;;;8.30;92.30;;;;;;5918611;24;20025;-85
2022/01/04 12:31:56;;;;;;;2.72;1.70;;;8.30;92.30;;;;;;5933455;24;20044;-82
2022/01/04 12:34:36;;;;;;;2.67;1.60;;;8.30;92.30;;;;;;5932862;24;20025;-83
2022/01/04 12:37:04;;;;;;;2.60;1.40;;;8.30;92.40;;;;;;5828772;24;20028;-83
2022/01/04 12:39:36;;;;;;;1.83;1.10;;;8.20;92.40;;;;;;5838237;24;20026;-79
2022/01/04 12:42:51;;;;;;;2.50;1.35;;;8.20;92.40;;;;;;5854557;24;20029;-86
2022/01/04 12:45:38;;;;;;;2.10;1.10;;;8.10;92.40;;;;;;5852936;24;20018;-87
2022/01/04 12:48:04;;;;;;;1.50;0.95;;;8.10;92.40;;;;;;5856182;24;20071;-84
2022/01/04 12:51:54;;;;;;;2.38;1.10;;;8.10;92.40;;;;;;5859431;24;20029;-87
2022/01/04 12:54:24;;;;;;;3.20;1.00;;;8.00;92.50;;;;;;5918823;24;20463;-84
2022/01/04 13:00:38;;;;;;;1.83;1.00;;;8.00;92.50;;;;;;6207727;22;20024;-87
2022/01/04 13:03:34;;;;;;;1.05;0.60;;;7.90;92.60;;;;;;6245674;23;20024;-85
2022/01/04 13:06:08;;;;;;;0.55;0.50;;;8.00;92.60;;;;;;6222560;23;20043;-85
2022/01/04 13:08:43;;;;;;;0.95;0.57;;;8.00;92.50;;;;;;6188122;23;20023;-86
2022/01/04 13:11:32;;;;;;;0.50;0.40;;;8.00;92.60;;;;;;6210604;23;20084;-87
2022/01/04 13:14:01;;;;;;;0.70;0.50;;;8.00;92.60;;;;;;6210839;23;20005;-83
2022/01/04 13:16:36;;;;;;;0.47;0.47;;;8.00;92.50;;;;;;6187036;23;20096;-85
2022/01/04 13:19:31;;;;;;;0.70;0.50;;;8.00;92.40;;;;;;6191231;23;20017;-85
2022/01/04 13:22:03;;;;;;;1.00;0.30;;;8.10;92.50;;;;;;6166978;23;20013;-85
2022/01/04 13:24:39;;;;;;;1.25;0.40;;;8.10;92.40;;;;;;6183751;23;20009;-79
2022/01/04 13:27:21;;;;;;;0.63;0.38;;;8.00;92.40;;;;;;6158087;23;20084;-82
2022/01/04 13:29:51;;;;;;;2.08;0.35;;;8.10;92.40;;;;;;6131826;23;20006;-83
2022/01/04 13:32:20;;;;;;;0.75;0.52;;;8.00;92.40;;;;;;6156525;23;20005;-82
2022/01/04 13:35:14;;;;;;;0.30;0.30;;;7.90;92.30;;;;;;6211797;23;20111;-89
2022/01/04 13:37:41;;;;;;;1.08;0.32;;;7.90;92.30;;;;;;6123477;23;20446;-81
2022/01/04 13:40:12;;;;;;;0.30;0.30;;;7.90;92.40;;;;;;6118272;23;20029;-84
2022/01/04 13:42:41;;;;;;;1.33;0.40;;;7.90;92.70;;;;;;6127688;23;20960;-81
2022/01/04 13:45:12;;;;;;;0.50;0.30;;;7.80;92.30;;;;;;6105025;23;20016;-82
2022/01/04 13:47:46;;;;;;;1.00;0.30;;;7.80;92.30;;;;;;6126927;23;20032;-85
2022/01/04 13:50:17;;;;;;;1.35;0.30;;;7.70;92.30;;;;;;6102865;23;20029;-82